Time;durP1;ratioP1;P1;durP2;ratioP2;P2;SDS_P1;SDS_P2;PMS_P1;PMS_P2;Temp;Humidity;BMP_temperature;BMP_pressure;BME280_temperature;BME280_humidity;BME280_pressure;Samples;Min_cycle;Max_cycle;Signal;HPM_P1;HPM_P2
2022/05/27 00:01:27;;;;;;;3.33;1.70;;;;;;;14.02;100.00;101083.69;5066306;28;20140;-81
2022/05/27 00:03:53;;;;;;;5.35;1.55;;;;;;;14.02;100.00;101081.91;5065365;28;20028;-80
2022/05/27 00:06:19;;;;;;;4.45;2.13;;;;;;;13.88;100.00;101055.34;5083485;28;20039;-74
2022/05/27 00:08:45;;;;;;;4.35;1.90;;;;;;;13.90;100.00;101064.03;5068523;28;20029;-77
2022/05/27 00:11:12;;;;;;;7.05;2.05;;;;;;;13.97;100.00;101078.63;5081954;28;20029;-78
2022/05/27 00:13:38;;;;;;;5.70;1.88;;;;;;;13.85;100.00;101060.81;5065485;28;20025;-77
2022/05/27 00:16:03;;;;;;;10.55;1.83;;;;;;;13.50;100.00;101004.56;5082689;28;20085;-77
2022/05/27 00:18:29;;;;;;;10.68;1.90;;;;;;;13.95;100.00;101079.66;5067834;28;20025;-79
2022/05/27 00:20:56;;;;;;;5.60;2.03;;;;;;;13.91;100.00;101078.97;5067859;28;20024;-75
2022/05/27 00:23:21;;;;;;;5.32;2.17;;;;;;;13.83;100.00;101058.22;5083506;28;20470;-78
2022/05/27 00:25:46;;;;;;;3.58;1.65;;;;;;;13.89;100.00;101069.41;5068278;28;20016;-79
2022/05/27 00:28:12;;;;;;;13.40;2.47;;;;;;;13.93;100.00;101070.94;5066906;28;20058;-73
2022/05/27 00:30:37;;;;;;;4.07;1.60;;;;;;;13.85;100.00;101057.31;5069507;28;20462;-77
2022/05/27 00:33:04;;;;;;;3.47;1.60;;;;;;;13.82;100.00;101053.03;5085081;28;20039;-79
2022/05/27 00:35:29;;;;;;;5.03;2.30;;;;;;;13.71;100.00;101034.25;5070324;28;20028;-77
2022/05/27 00:37:55;;;;;;;5.13;2.20;;;;;;;13.86;100.00;101067.78;5067910;28;20035;-78
2022/05/27 00:40:21;;;;;;;3.53;1.45;;;;;;;13.78;100.00;101054.13;5051361;28;20066;-77
2022/05/27 00:42:46;;;;;;;3.58;1.65;;;;;;;13.74;100.00;101039.38;5046324;28;20032;-80
2022/05/27 00:45:24;;;;;;;3.67;1.67;;;;;;;13.89;100.00;101064.13;5046815;28;20235;-77
2022/05/27 00:47:53;;;;;;;8.43;2.53;;;;;;;13.83;100.00;101060.00;5045014;28;20024;-79
2022/05/27 00:50:23;;;;;;;4.20;1.52;;;;;;;13.85;100.00;101068.72;5045876;28;20800;-79
2022/05/27 00:52:48;;;;;;;3.70;1.67;;;;;;;13.79;100.00;101054.03;5044577;28;20241;-79
2022/05/27 00:55:18;;;;;;;7.38;2.17;;;;;;;13.83;100.00;101062.66;5045208;28;20838;-79
2022/05/27 00:57:53;;;;;;;3.47;1.20;;;;;;;13.82;100.00;101058.31;5045561;28;20024;-78
2022/05/27 01:00:21;;;;;;;4.45;1.90;;;;;;;13.82;100.00;101058.31;5045614;28;20868;-79
2022/05/27 01:02:47;;;;;;;5.78;1.40;;;;;;;13.83;100.00;101052.09;5051491;28;20028;-82
2022/05/27 01:05:15;;;;;;;3.58;1.70;;;;;;;13.73;100.00;101024.44;5050821;28;20017;-79
2022/05/27 01:07:40;;;;;;;5.57;2.17;;;;;;;13.78;100.00;101040.94;5050055;28;20031;-80
2022/05/27 01:10:08;;;;;;;3.65;1.52;;;;;;;13.72;100.00;101026.22;5059244;28;20032;-78
2022/05/27 01:13:12;;;;;;;6.10;2.03;;;;;;;13.80;100.00;101042.53;5062498;28;20036;-80
2022/05/27 01:15:59;;;;;;;4.18;1.90;;;;;;;13.80;100.00;101044.31;5061311;28;20036;-77
2022/05/27 01:21:26;;;;;;;9.23;1.98;;;;;;;13.68;100.00;101019.44;5061041;28;20042;-76
2022/05/27 01:24:03;;;;;;;3.10;1.58;;;;;;;13.77;100.00;101034.78;5059068;28;20032;-75
2022/05/27 01:26:59;;;;;;;6.00;1.67;;;;;;;13.76;100.00;101034.84;5055733;28;20024;-79
2022/05/27 01:29:24;;;;;;;5.82;2.13;;;;;;;13.78;100.00;101033.00;5055957;28;20833;-79
2022/05/27 01:32:02;;;;;;;3.67;1.80;;;;;;;13.76;100.00;101032.22;5055458;28;20039;-76
2022/05/27 01:35:03;;;;;;;3.50;1.52;;;;;;;13.76;100.00;101029.56;5054752;28;20039;-77
2022/05/27 01:37:31;;;;;;;3.63;1.77;;;;;;;13.75;100.00;101035.81;5050450;28;20847;-78
2022/05/27 01:40:27;;;;;;;4.43;1.80;;;;;;;13.72;100.00;101030.69;5055491;28;20032;-80
2022/05/27 01:43:00;;;;;;;4.57;2.40;;;;;;;13.67;100.00;101032.72;5057474;28;20040;-80
2022/05/27 01:45:33;;;;;;;6.85;1.83;;;;;;;13.60;100.00;101023.41;5055423;28;20038;-79
2022/05/27 01:48:18;;;;;;;8.95;2.40;;;;;;;13.58;100.00;101017.34;5043268;28;20041;-80
2022/05/27 01:51:10;;;;;;;10.55;2.15;;;;;;;13.52;100.00;101025.59;5037570;28;20024;-77
2022/05/27 01:53:42;;;;;;;4.68;1.75;;;;;;;13.38;100.00;101036.03;5035335;28;20132;-77
2022/05/27 01:56:19;;;;;;;4.65;2.15;;;;;;;13.22;100.00;101031.50;5036925;28;20029;-78
2022/05/27 01:58:48;;;;;;;4.45;2.53;;;;;;;13.07;100.00;101021.72;5034347;28;20067;-77
2022/05/27 02:01:18;;;;;;;6.32;2.15;;;;;;;12.98;100.00;101029.25;5036672;28;20021;-75
2022/05/27 02:03:49;;;;;;;5.78;2.72;;;;;;;12.85;100.00;101028.13;5045024;28;20189;-75
2022/05/27 02:06:20;;;;;;;4.70;2.60;;;;;;;12.68;100.00;101023.66;5016258;28;20134;-74
2022/05/27 02:08:52;;;;;;;12.93;2.90;;;;;;;12.52;100.00;101012.16;5015143;28;20031;-74
2022/05/27 02:11:20;;;;;;;4.82;2.75;;;;;;;12.48;100.00;101022.00;5032954;28;20028;-74
2022/05/27 02:14:00;;;;;;;6.90;2.45;;;;;;;12.43;100.00;101028.44;5015086;28;20438;-74
2022/05/27 02:16:54;;;;;;;8.48;2.90;;;;;;;12.41;100.00;101023.22;5032187;28;20039;-73
2022/05/27 02:19:19;;;;;;;9.60;3.65;;;;;;;12.38;100.00;101019.88;5029594;28;20044;-72
2022/05/27 02:21:57;;;;;;;8.65;3.70;;;;;;;12.30;100.00;101021.09;5032535;28;20051;-71
2022/05/27 02:24:27;;;;;;;6.78;3.17;;;;;;;12.18;100.00;101008.50;5031963;28;20141;-72
2022/05/27 02:26:59;;;;;;;4.28;2.60;;;;;;;12.26;100.00;101019.56;5032873;28;20028;-71
2022/05/27 02:29:28;;;;;;;8.65;3.50;;;;;;;12.10;100.00;101005.38;5033223;28;20059;-72
2022/05/27 02:32:05;;;;;;;4.43;2.90;;;;;;;12.18;100.00;101023.44;5031220;28;20091;-72
2022/05/27 02:37:32;;;;;;;6.03;3.28;;;;;;;11.94;100.00;100988.56;5031191;28;20051;-75
2022/05/27 02:39:59;;;;;;;8.45;3.70;;;;;;;12.03;100.00;100996.03;5031849;28;20924;-73
2022/05/27 02:42:33;;;;;;;7.88;3.60;;;;;;;12.06;100.00;100997.69;5032241;28;20043;-73
2022/05/27 02:45:04;;;;;;;11.20;3.38;;;;;;;12.14;100.00;101017.47;5032814;28;20028;-73
2022/05/27 02:47:41;;;;;;;10.00;3.58;;;;;;;12.12;100.00;101018.47;5035155;28;20113;-73
2022/05/27 02:50:12;;;;;;;6.05;3.42;;;;;;;12.02;100.00;101002.25;5033120;28;20027;-73
2022/05/27 02:53:31;;;;;;;7.20;4.20;;;;;;;12.11;100.00;101022.88;5033993;28;20877;-73
2022/05/27 02:56:25;;;;;;;7.72;3.83;;;;;;;12.08;100.00;101023.03;4995120;28;20028;-73
2022/05/27 02:58:51;;;;;;;8.05;4.32;;;;;;;12.05;100.00;101012.63;4995003;28;20076;-73
2022/05/27 03:01:16;;;;;;;7.22;4.10;;;;;;;11.93;100.00;100994.75;5019949;28;20049;-73
2022/05/27 03:03:42;;;;;;;14.45;4.38;;;;;;;11.98;100.00;100998.03;5030856;28;20869;-71
2022/05/27 03:06:13;;;;;;;10.00;3.85;;;;;;;12.03;100.00;101009.22;5031815;28;20082;-71
2022/05/27 03:08:56;;;;;;;5.90;4.00;;;;;;;11.95;100.00;100995.56;5031378;28;20036;-73
2022/05/27 03:11:36;;;;;;;6.45;4.30;;;;;;;12.02;100.00;101001.41;5031183;28;20320;-72
2022/05/27 03:14:16;;;;;;;7.65;3.47;;;;;;;12.04;100.00;101003.03;5029802;28;20036;-72
2022/05/27 03:17:03;;;;;;;9.50;4.32;;;;;;;12.03;100.00;100993.41;5030767;28;20024;-73
2022/05/27 03:19:51;;;;;;;10.35;5.35;;;;;;;12.04;100.00;100994.25;5031020;28;20044;-71
2022/05/27 03:22:42;;;;;;;7.82;4.63;;;;;;;12.00;100.00;100979.53;5032399;28;20028;-72
2022/05/27 03:25:12;;;;;;;10.55;4.70;;;;;;;11.96;100.00;100970.94;5029574;28;20130;-72
2022/05/27 03:27:46;;;;;;;5.97;4.05;;;;;;;12.05;100.00;100983.66;5031452;28;20089;-72
2022/05/27 03:30:27;;;;;;;10.43;5.30;;;;;;;12.07;100.00;100989.72;5030486;28;20230;-73
2022/05/27 03:33:30;;;;;;;6.85;4.88;;;;;;;12.08;100.00;100985.28;5029252;28;20032;-71
2022/05/27 03:35:55;;;;;;;7.85;5.18;;;;;;;12.09;100.00;100985.25;5031041;28;21009;-71
2022/05/27 03:38:29;;;;;;;7.43;5.13;;;;;;;11.98;100.00;100974.34;5031496;28;20044;-71
2022/05/27 03:41:09;;;;;;;7.55;4.72;;;;;;;12.02;100.00;100986.44;5031745;28;20131;-71
2022/05/27 03:43:35;;;;;;;15.85;5.93;;;;;;;12.05;100.00;100985.44;5030304;28;20028;-74
2022/05/27 03:46:02;;;;;;;10.30;6.40;;;;;;;12.09;100.00;100989.66;5031460;28;20024;-71
2022/05/27 03:48:30;;;;;;;13.15;5.90;;;;;;;11.98;100.00;100970.84;5033004;28;20036;-73
2022/05/27 03:50:59;;;;;;;8.57;5.70;;;;;;;12.02;100.00;100982.97;5034937;28;20400;-71
2022/05/27 03:54:03;;;;;;;12.15;6.22;;;;;;;12.03;100.00;100974.13;5033218;28;20122;-72
2022/05/27 03:56:10;;;;;;;12.73;7.22;;;;;;;12.05;100.00;100974.91;5031377;28;20040;-73
2022/05/27 03:58:35;;;;;;;9.93;7.18;;;;;;;12.01;100.00;100970.69;5033384;28;20032;-75
2022/05/27 04:01:01;;;;;;;13.02;7.00;;;;;;;11.90;100.00;100954.53;5033214;28;20080;-73
2022/05/27 04:03:26;;;;;;;11.23;7.57;;;;;;;12.05;100.00;100980.19;5031488;28;20085;-72
2022/05/27 04:05:51;;;;;;;10.70;7.00;;;;;;;12.16;100.00;100986.66;5031559;28;20040;-72
2022/05/27 04:08:17;;;;;;;21.17;7.72;;;;;;;12.18;100.00;100987.44;5029797;28;20183;-73
2022/05/27 04:10:42;;;;;;;16.60;7.60;;;;;;;12.20;100.00;100995.28;5030604;28;20037;-72
2022/05/27 04:13:07;;;;;;;23.30;9.45;;;;;;;11.84;100.00;100929.34;5030839;28;20834;-72
2022/05/27 04:15:34;;;;;;;11.52;7.60;;;;;;;11.81;100.00;100921.59;5031251;28;20173;-72
2022/05/27 04:17:59;;;;;;;18.00;9.63;;;;;;;12.17;100.00;100982.22;5030862;28;20135;-72
2022/05/27 04:20:25;;;;;;;14.55;9.50;;;;;;;12.22;100.00;100996.91;5012455;28;20032;-72
2022/05/27 04:22:54;;;;;;;21.67;9.77;;;;;;;12.24;100.00;100986.28;5029190;28;20024;-72
2022/05/27 04:25:20;;;;;;;14.52;9.98;;;;;;;12.04;100.00;100968.78;5033846;28;20277;-74
2022/05/27 04:27:45;;;;;;;17.73;9.23;;;;;;;12.20;100.00;100982.94;5036537;28;20021;-75
2022/05/27 04:30:12;;;;;;;16.13;9.82;;;;;;;12.20;100.00;100980.28;5033812;28;20098;-71
2022/05/27 04:32:38;;;;;;;24.70;10.63;;;;;;;12.20;100.00;100982.94;5032517;28;20059;-73
2022/05/27 04:35:03;;;;;;;12.27;8.63;;;;;;;12.20;100.00;100985.56;5029107;28;20890;-75
2022/05/27 04:37:29;;;;;;;20.52;10.80;;;;;;;12.06;100.00;100955.56;5027363;28;20032;-76
2022/05/27 04:39:54;;;;;;;15.60;9.90;;;;;;;12.29;100.00;100986.94;5029192;28;20029;-71
2022/05/27 04:42:20;;;;;;;16.67;10.80;;;;;;;12.23;100.00;100982.78;5028674;28;20024;-74
2022/05/27 04:44:45;;;;;;;11.68;8.95;;;;;;;12.21;100.00;100973.25;5028916;28;20135;-75
2022/05/27 04:47:11;;;;;;;15.18;9.55;;;;;;;12.27;100.00;100986.97;5028586;28;20077;-75
2022/05/27 04:49:56;;;;;;;19.00;8.77;;;;;;;12.27;100.00;100971.16;5030155;28;20933;-76
2022/05/27 04:52:24;;;;;;;10.52;8.20;;;;;;;12.33;100.00;100990.28;5028828;28;20028;-78
2022/05/27 04:54:50;;;;;;;20.70;10.13;;;;;;;12.36;100.00;100995.38;5029939;28;20838;-74
2022/05/27 04:57:19;;;;;;;14.20;9.07;;;;;;;12.23;100.00;100960.88;5030414;28;20028;-77
2022/05/27 04:59:46;;;;;;;11.63;7.93;;;;;;;12.33;100.00;100979.72;5011791;28;20048;-76
2022/05/27 05:02:14;;;;;;;11.45;8.00;;;;;;;12.30;100.00;100970.19;5029746;28;20993;-73
2022/05/27 05:04:39;;;;;;;18.98;8.57;;;;;;;12.41;100.00;100991.59;5028455;28;20032;-74
2022/05/27 05:07:08;;;;;;;15.15;8.32;;;;;;;12.34;100.00;100982.28;5011454;28;20032;-73
2022/05/27 05:09:34;;;;;;;12.20;7.82;;;;;;;12.30;100.00;100976.28;5029020;28;20945;-76
2022/05/27 05:12:00;;;;;;;13.32;8.48;;;;;;;12.41;100.00;101010.03;5032953;28;20040;-71
2022/05/27 05:14:25;;;;;;;13.40;7.78;;;;;;;12.28;100.00;100975.53;5044020;28;20036;-78
2022/05/27 05:16:51;;;;;;;14.60;8.60;;;;;;;12.44;100.00;100993.22;5054181;28;20108;-76
2022/05/27 05:19:16;;;;;;;15.23;7.95;;;;;;;12.23;100.00;100964.34;5054468;28;20161;-83
2022/05/27 05:21:41;;;;;;;12.80;8.88;;;;;;;12.39;100.00;100996.09;5062055;28;20026;-79
2022/05/27 05:24:07;;;;;;;12.25;8.48;;;;;;;12.39;100.00;101001.38;5061948;28;20028;-83
2022/05/27 05:26:32;;;;;;;9.85;7.88;;;;;;;12.45;100.00;100997.56;5061475;28;20098;-83
2022/05/27 05:28:58;;;;;;;10.80;8.27;;;;;;;12.29;100.00;100973.75;5050696;28;20136;-82
2022/05/27 05:31:23;;;;;;;13.02;8.98;;;;;;;12.41;100.00;100996.88;5037060;28;20869;-76
2022/05/27 05:33:48;;;;;;;9.90;7.45;;;;;;;12.39;100.00;100989.97;5040801;28;20025;-84
2022/05/27 05:36:14;;;;;;;13.88;8.85;;;;;;;12.45;100.00;100990.53;5035136;28;20036;-76
2022/05/27 05:38:39;;;;;;;10.45;8.07;;;;;;;12.44;100.00;100990.59;5031613;28;20795;-77
2022/05/27 05:41:05;;;;;;;17.17;8.00;;;;;;;12.51;100.00;100995.50;5033111;28;20094;-78
2022/05/27 05:43:31;;;;;;;10.23;7.47;;;;;;;12.55;100.00;100999.69;5047262;28;20033;-76
2022/05/27 05:45:57;;;;;;;11.98;8.43;;;;;;;12.61;100.00;101006.44;5033016;28;20735;-73
2022/05/27 05:48:22;;;;;;;9.80;6.30;;;;;;;12.55;100.00;100993.56;5047694;28;20024;-78
2022/05/27 05:50:47;;;;;;;9.10;7.00;;;;;;;12.59;100.00;101005.66;5034915;28;20036;-78
2022/05/27 05:53:13;;;;;;;10.80;6.00;;;;;;;12.30;100.00;100957.84;5049871;28;20883;-77
2022/05/27 05:55:38;;;;;;;10.07;5.38;;;;;;;12.69;100.00;101014.84;5034470;28;20058;-77
2022/05/27 05:58:04;;;;;;;11.32;5.95;;;;;;;12.61;100.00;101007.28;5051477;28;20123;-78
2022/05/27 06:00:29;;;;;;;15.75;5.65;;;;;;;12.57;100.00;100989.91;5050869;28;20063;-78
2022/05/27 06:02:56;;;;;;;11.88;5.93;;;;;;;12.73;100.00;101022.53;5051046;28;20157;-78
2022/05/27 06:05:23;;;;;;;10.88;5.38;;;;;;;12.65;100.00;101008.00;5035836;28;20025;-73
2022/05/27 06:07:49;;;;;;;9.63;4.97;;;;;;;12.77;100.00;101023.25;5056102;28;20210;-76
2022/05/27 06:10:16;;;;;;;7.78;4.93;;;;;;;12.74;100.00;101031.31;5046765;28;20169;-76
2022/05/27 06:12:42;;;;;;;9.35;5.70;;;;;;;12.52;100.00;100996.34;5021363;28;20028;-77
2022/05/27 06:15:10;;;;;;;6.15;4.93;;;;;;;12.71;100.00;101034.06;5031715;28;20032;-73
2022/05/27 06:17:36;;;;;;;8.38;5.10;;;;;;;12.60;100.00;101015.28;5065033;28;20035;-77
2022/05/27 06:20:03;;;;;;;10.27;4.40;;;;;;;12.70;100.00;101033.25;5034233;28;20024;-76
2022/05/27 06:22:28;;;;;;;6.63;5.45;;;;;;;12.66;100.00;101025.53;5053609;28;20860;-75
2022/05/27 06:24:54;;;;;;;9.32;5.15;;;;;;;12.73;100.00;101042.78;5054914;28;20039;-77
2022/05/27 06:27:19;;;;;;;8.93;5.43;;;;;;;12.64;100.00;101024.78;5037269;28;20032;-78
2022/05/27 06:35:12;;;;;;;7.10;4.95;;;;;;;12.87;100.00;101053.50;5053165;28;20282;-77
2022/05/27 06:37:38;;;;;;;9.05;5.45;;;;;;;12.80;100.00;101034.50;5051565;28;20048;-77
2022/05/27 06:40:05;;;;;;;7.07;4.30;;;;;;;12.83;100.00;101033.47;5053021;28;20872;-77
2022/05/27 06:42:30;;;;;;;13.57;4.82;;;;;;;12.93;100.00;101040.00;5053054;28;20028;-76
2022/05/27 06:44:56;;;;;;;7.88;4.40;;;;;;;12.99;100.00;101044.13;5051496;28;20048;-76
2022/05/27 06:47:21;;;;;;;4.97;4.22;;;;;;;12.98;100.00;101042.44;5053370;28;20042;-78
2022/05/27 06:49:47;;;;;;;8.57;5.32;;;;;;;13.04;100.00;101037.69;5035555;28;20844;-79
2022/05/27 06:52:13;;;;;;;5.97;4.60;;;;;;;13.21;100.00;101024.50;5053790;28;20035;-77
2022/05/27 06:54:39;;;;;;;11.10;4.97;;;;;;;13.30;100.00;101042.53;5054449;28;20035;-79
2022/05/27 06:57:05;;;;;;;7.07;5.55;;;;;;;13.29;100.00;101027.63;5053146;28;20032;-80
2022/05/27 06:59:32;;;;;;;9.30;5.65;;;;;;;13.45;100.00;101063.81;5054557;28;20117;-80
2022/05/27 07:01:57;;;;;;;11.15;5.95;;;;;;;13.10;100.00;101003.13;5054384;28;20024;-80
2022/05/27 07:04:23;;;;;;;8.32;6.65;;;;;;;13.48;100.00;101053.94;5054596;28;20035;-79
2022/05/27 07:06:49;;;;;;;9.88;5.28;;;;;;;13.60;100.00;101060.38;5052072;28;20147;-76
2022/05/27 07:09:16;;;;;;;9.27;5.57;;;;;;;13.75;100.00;101059.59;5048530;28;20051;-81
2022/05/27 07:11:44;;;;;;;7.80;6.43;;;;;;;13.57;100.00;101015.63;5033784;28;20024;-78
2022/05/27 07:14:11;;;;;;;9.43;6.45;;;;;;;13.88;100.00;101047.44;5019290;28;20824;-77
2022/05/27 07:16:38;;;;;;;9.85;6.75;;;;;;;13.80;100.00;101060.19;5035455;28;20091;-79
2022/05/27 07:19:04;;;;;;;8.82;5.78;;;;;;;13.57;100.00;101020.91;5049968;28;20047;-80
2022/05/27 07:21:29;;;;;;;9.15;5.72;;;;;;;13.86;100.00;101069.59;5032898;28;20812;-80
2022/05/27 07:23:56;;;;;;;8.23;5.80;;;;;;;13.89;100.00;101070.25;5033777;28;20034;-75
2022/05/27 07:26:23;;;;;;;12.05;6.00;;;;;;;14.00;100.00;101067.91;5031812;28;20114;-76
2022/05/27 07:28:48;;;;;;;8.48;6.50;;;;;;;14.10;100.00;101063.81;5048437;28;20020;-79
2022/05/27 07:31:14;;;;;;;9.43;6.43;;;;;;;14.25;100.00;101070.94;5033254;28;20772;-78
2022/05/27 07:33:40;;;;;;;11.73;7.10;;;;;;;14.36;100.00;101053.66;5051582;28;20123;-78
2022/05/27 07:36:06;;;;;;;11.00;6.05;;;;;;;14.59;100.00;101077.91;5034080;28;20024;-79
2022/05/27 07:38:31;;;;;;;9.48;6.30;;;;;;;14.55;100.00;101051.69;5033209;28;20078;-79
2022/05/27 07:40:57;;;;;;;8.55;5.55;;;;;;;14.30;100.00;101008.06;5049516;28;20029;-79
2022/05/27 07:43:22;;;;;;;7.68;5.25;;;;;;;14.54;100.00;101069.34;5048895;28;21001;-78
2022/05/27 07:45:49;;;;;;;12.68;5.70;;;;;;;14.41;100.00;101057.75;5036114;28;20399;-76
2022/05/27 07:48:14;;;;;;;11.65;5.97;;;;;;;14.62;100.00;101082.16;5045132;28;20028;-77
2022/05/27 07:50:40;;;;;;;12.68;6.07;;;;;;;14.59;100.00;101077.91;5054937;28;20123;-76
2022/05/27 07:53:06;;;;;;;8.50;5.65;;;;;;;14.60;100.00;101069.00;5053496;28;20135;-77
2022/05/27 07:55:31;;;;;;;8.40;5.60;;;;;;;14.60;100.00;101052.31;5054516;28;20031;-77
2022/05/27 07:57:58;;;;;;;10.80;6.05;;;;;;;14.71;100.00;101071.03;5051881;28;20024;-78
2022/05/27 08:00:27;;;;;;;8.02;5.75;;;;;;;14.75;100.00;101060.22;5050518;28;20024;-77
2022/05/27 08:02:53;;;;;;;8.27;5.95;;;;;;;14.84;100.00;101072.91;5036000;28;20898;-76
2022/05/27 08:05:22;;;;;;;10.98;5.53;;;;;;;14.54;100.00;101005.88;5050230;28;20085;-75
2022/05/27 08:07:47;;;;;;;7.45;4.72;;;;;;;15.25;100.00;101090.84;5050704;28;20034;-78
2022/05/27 08:10:16;;;;;;;7.55;5.00;;;;;;;15.21;100.00;101103.41;5049394;28;20838;-79
2022/05/27 08:12:42;;;;;;;7.53;4.70;;;;;;;15.24;100.00;101091.81;5045856;28;20036;-77
2022/05/27 08:15:08;;;;;;;11.00;5.40;;;;;;;15.14;100.00;101104.69;5042162;28;20073;-78
2022/05/27 08:17:38;;;;;;;13.43;5.82;;;;;;;15.09;100.00;101095.31;5044604;28;20043;-76
2022/05/27 08:20:05;;;;;;;12.45;5.82;;;;;;;14.72;100.00;101025.13;5050735;28;20032;-78
2022/05/27 08:22:31;;;;;;;7.90;6.05;;;;;;;15.25;100.00;101080.25;5039735;28;20021;-82
2022/05/27 08:24:56;;;;;;;11.45;5.93;;;;;;;15.35;100.00;101087.56;5040597;28;20070;-74
2022/05/27 08:27:22;;;;;;;10.57;5.95;;;;;;;15.29;100.00;101068.53;5051149;28;20036;-82
2022/05/27 08:29:48;;;;;;;11.40;5.55;;;;;;;15.28;100.00;101070.34;5032882;28;20139;-77
2022/05/27 08:32:13;;;;;;;9.35;5.43;;;;;;;15.44;100.00;101070.31;5037014;28;20075;-81
2022/05/27 08:40:35;;;;;;;9.25;4.72;;;;;;;15.58;100.00;101096.00;5037518;28;19973;-80
2022/05/27 08:43:30;;;;;;;7.47;4.90;;;;;;;15.51;100.00;101100.81;5038381;28;20036;-77
2022/05/27 08:46:21;;;;;;;7.05;4.80;;;;;;;15.50;100.00;101099.09;5033980;28;20027;-78
2022/05/27 08:48:51;;;;;;;6.22;4.28;;;;;;;15.51;100.00;101092.00;5042567;28;20017;-79
2022/05/27 08:51:22;;;;;;;9.77;5.60;;;;;;;15.50;100.00;101098.25;5046522;28;20022;-79
2022/05/27 08:54:09;;;;;;;8.07;5.28;;;;;;;15.61;100.00;101086.06;5057763;28;20024;-76
2022/05/27 08:59:37;;;;;;;10.90;5.93;;;;;;;15.83;100.00;101088.25;5061699;28;20047;-76
2022/05/27 09:02:28;;;;;;;9.95;6.13;;;;;;;15.69;100.00;101052.00;5070554;28;20036;-78
2022/05/27 09:05:14;;;;;;;9.70;6.15;;;;;;;16.00;100.00;101088.09;5050255;28;20039;-76
2022/05/27 09:07:49;;;;;;;7.47;4.93;;;;;;;16.13;100.00;101098.78;5053816;28;20151;-76
2022/05/27 09:10:21;;;;;;;9.05;5.47;;;;;;;16.18;100.00;101096.72;5048054;28;20063;-76
2022/05/27 09:12:46;;;;;;;7.88;4.43;;;;;;;16.22;100.00;101093.75;5052008;28;20357;-78
2022/05/27 09:15:27;;;;;;;7.25;4.60;;;;;;;16.40;100.00;101096.19;5051787;28;20066;-77
2022/05/27 09:18:15;;;;;;;7.15;4.60;;;;;;;16.43;100.00;101101.31;5049044;28;20045;-74
2022/05/27 09:20:47;;;;;;;6.70;4.53;;;;;;;16.42;100.00;101095.19;5036240;28;20825;-78
2022/05/27 09:23:34;;;;;;;10.68;4.05;;;;;;;16.49;100.00;101088.53;5060484;28;20036;-74
2022/05/27 09:26:18;;;;;;;16.15;4.22;;;;;;;16.76;100.00;101080.63;5051202;28;20063;-73
2022/05/27 09:29:00;;;;;;;7.13;3.47;;;;;;;16.84;100.00;101055.28;5055033;28;20170;-72
2022/05/27 09:31:42;;;;;;;6.80;4.38;;;;;;;17.17;100.00;101086.72;5053029;28;20070;-77
2022/05/27 09:34:10;;;;;;;9.10;3.60;;;;;;;17.31;100.00;101069.84;5059863;28;20029;-73
2022/05/27 09:36:40;;;;;;;5.05;2.90;;;;;;;17.30;100.00;101090.25;5033272;28;20087;-78
2022/05/27 09:39:11;;;;;;;5.45;3.08;;;;;;;17.32;100.00;101072.44;5057181;28;20141;-77
2022/05/27 09:41:52;;;;;;;8.65;2.95;;;;;;;17.57;100.00;101071.66;5061494;28;20039;-78
2022/05/27 09:44:26;;;;;;;6.72;2.40;;;;;;;17.73;100.00;101090.91;5053155;28;20028;-73
2022/05/27 09:46:52;;;;;;;4.10;2.30;;;;;;;17.50;100.00;101085.41;5052258;28;20024;-74
2022/05/27 09:49:18;;;;;;;10.90;2.58;;;;;;;16.88;100.00;101034.69;5052259;28;20077;-75
2022/05/27 09:51:43;;;;;;;11.73;3.00;;;;;;;16.94;100.00;101103.31;5053395;28;20038;-76
2022/05/27 09:54:15;;;;;;;7.30;2.42;;;;;;;16.80;100.00;101112.19;5054628;28;20865;-77
2022/05/27 09:56:46;;;;;;;8.88;2.72;;;;;;;16.42;100.00;101092.53;5056972;28;20032;-77
2022/05/27 09:59:27;;;;;;;6.25;2.85;;;;;;;16.26;100.00;101116.50;5053658;28;20032;-75
2022/05/27 10:02:26;;;;;;;10.57;3.00;;;;;;;15.76;100.00;101090.44;5052110;28;20228;-77
2022/05/27 10:04:52;;;;;;;6.20;2.38;;;;;;;15.79;100.00;101116.75;5052418;28;20032;-75
2022/05/27 10:07:33;;;;;;;8.73;3.17;;;;;;;15.88;100.00;101110.06;5035868;28;20039;-77
2022/05/27 10:10:14;;;;;;;6.30;2.80;;;;;;;15.62;100.00;101033.91;5037310;28;20024;-77
2022/05/27 10:12:40;;;;;;;8.35;2.70;;;;;;;16.22;100.00;101093.75;5069817;28;20028;-73
2022/05/27 10:15:06;;;;;;;5.20;2.70;;;;;;;16.62;100.00;101109.88;5052989;28;20278;-77
2022/05/27 10:17:36;;;;;;;7.47;2.95;;;;;;;16.86;100.00;101100.31;5053402;28;20137;-74
2022/05/27 10:20:29;;;;;;;5.75;2.65;;;;;;;17.25;100.00;101086.22;5051793;28;20028;-75
2022/05/27 10:23:10;;;;;;;11.65;3.10;;;;;;;17.53;100.00;101093.19;5034888;28;20036;-76
2022/05/27 10:25:36;;;;;;;10.77;2.35;;;;;;;17.57;100.00;101100.03;5052295;28;20028;-78
2022/05/27 10:28:04;;;;;;;3.88;2.13;;;;;;;17.42;100.00;101071.78;5053724;28;20231;-76
2022/05/27 10:30:33;;;;;;;5.85;2.45;;;;;;;17.60;100.00;101091.84;5051961;28;20044;-79
2022/05/27 10:33:22;;;;;;;4.70;2.13;;;;;;;17.31;100.00;101109.72;5052265;28;20553;-75
2022/05/27 10:35:51;;;;;;;8.77;3.90;;;;;;;16.96;100.00;101113.84;5052347;28;20820;-76
2022/05/27 10:38:48;;;;;;;3.80;1.85;;;;;;;16.66;100.00;101090.16;5052502;28;20039;-79
2022/05/27 10:41:25;;;;;;;5.43;2.17;;;;;;;16.56;100.00;101116.38;5051696;28;20817;-77
2022/05/27 10:44:18;;;;;;;9.52;2.40;;;;;;;16.72;100.00;101118.94;5054275;28;20041;-77
2022/05/27 10:46:54;;;;;;;4.47;2.17;;;;;;;16.99;100.00;101105.69;5053937;28;20051;-73
2022/05/27 10:49:38;;;;;;;11.30;2.95;;;;;;;17.34;100.00;101107.69;5054070;28;20024;-74
2022/05/27 10:52:17;;;;;;;4.30;2.15;;;;;;;17.75;100.00;101096.97;5053723;28;20035;-78
2022/05/27 10:54:57;;;;;;;6.32;2.65;;;;;;;17.91;100.00;101117.19;5054073;28;20020;-77
2022/05/27 11:04:10;;;;;;;5.28;2.88;;;;;;;17.48;100.00;101103.25;5053523;28;20149;-73
2022/05/27 11:07:05;;;;;;;5.50;2.28;;;;;;;17.40;100.00;101068.41;5059717;28;20179;-75
2022/05/27 11:09:56;;;;;;;4.43;2.58;;;;;;;17.85;100.00;101113.13;5049128;28;20047;-77
2022/05/27 11:15:37;;;;;;;3.75;2.10;;;;;;;18.14;92.20;101097.81;5033987;28;20431;-73
2022/05/27 11:18:30;;;;;;;7.43;2.28;;;;;;;18.62;95.60;101096.16;5051181;28;20036;-79
2022/05/27 11:21:19;;;;;;;6.18;2.33;;;;;;;19.00;86.53;101096.84;5033705;28;20028;-79
2022/05/27 11:24:14;;;;;;;7.63;2.80;;;;;;;18.54;89.32;101059.44;5032094;28;20029;-75
2022/05/27 11:26:43;;;;;;;7.97;2.53;;;;;;;18.28;91.79;101119.81;5041379;28;20064;-78
2022/05/27 11:29:46;;;;;;;7.13;2.63;;;;;;;18.00;90.78;101106.75;5036324;28;20032;-76
2022/05/27 11:32:18;;;;;;;8.20;2.97;;;;;;;17.62;93.52;101116.50;5034077;28;20028;-79
2022/05/27 11:35:12;;;;;;;9.18;2.70;;;;;;;17.99;92.84;101114.81;5034438;28;20028;-77
2022/05/27 11:38:26;;;;;;;13.80;2.63;;;;;;;18.25;86.44;101114.69;5027913;28;20033;-74
2022/05/27 11:40:56;;;;;;;7.75;2.30;;;;;;;17.93;87.51;101110.78;5012430;28;20321;-78
2022/05/27 11:43:28;;;;;;;7.35;2.58;;;;;;;18.43;85.24;101125.00;5034216;28;20139;-78
2022/05/27 11:46:05;;;;;;;6.07;2.25;;;;;;;19.33;85.18;101109.50;5030686;28;20028;-76
2022/05/27 11:48:44;;;;;;;7.55;2.95;;;;;;;19.56;81.86;101113.09;5031550;28;20032;-71
2022/05/27 11:51:13;;;;;;;8.35;3.55;;;;;;;19.87;81.75;101115.97;5047355;28;20028;-74
2022/05/27 11:54:22;;;;;;;6.65;3.33;;;;;;;20.68;79.73;101121.13;5061433;28;20155;-73
2022/05/27 11:57:06;;;;;;;8.30;3.08;;;;;;;20.45;79.10;101115.94;5038561;28;20049;-76
2022/05/27 11:59:35;;;;;;;7.93;3.10;;;;;;;20.02;78.65;101126.41;5051666;28;20027;-74
2022/05/27 12:02:13;;;;;;;9.35;3.00;;;;;;;20.63;76.73;101111.75;5064166;28;20881;-78
2022/05/27 12:04:48;;;;;;;5.10;2.28;;;;;;;21.82;76.07;101076.78;5035770;28;20216;-79
2022/05/27 12:07:51;;;;;;;8.27;2.50;;;;;;;22.60;70.18;101098.44;5063406;28;20115;-70